Aérodrome :
LOGIN :

S'inscrire | Disclaimer

   EN    FR    IT 

 










Légende :    VFR   VFR Marginal   IFR   IFR Intensif   IFR Très Intensif
Visi : 
Plafond : 
>= 8 km
>= 3000ft
5 à 8 km
1000 à 3000 ft
1500m à 5 km
500 à 1000 ft
800 à 1500m
200 à 500 ft
< 800m
< 200 ft
Symboles :   Orages  Brouillard  Fortes neiges  Fortes précipitations  Vent > 20 kt
SIGMETs :   Divers  Orages  Givrage  Turbulence  Onde Orograph.  Cendres Volcan.






- Altitude de l'aérodrome : 119 ft
- Code IATA : WAT


EIWF - Waterford

DERNIER METAR :
  • 221030Z 01004KT 340V040 9000 SCT004 BKN009 08/08 Q1039 R03/1/////

METARs EXPIRÉS :
  • 221000Z 36006KT 330V030 8000 BKN005 08/07 Q1039 R03/1/////
  • 220930Z 01004KT 340V040 8000 BKN005 08/07 Q1039 R03/1/////
  • 220900Z VRB03KT 6000 FEW003 BKN006 07/07 Q1039 R03/1/////
  • 220830Z VRB03KT 7000 OVC006 07/07 Q1039 R03/1/////
  • 220800Z 36004KT 7000 SCT003 BKN006 07/07 Q1039 R03/1/////

TAF TAF EIWF
Valide du 22 à 09h jusqu'au 22 à 18h UTC


220800Z 2209/2218 01005KT 6000 SCT006 BKN015
TEMPO 2209/2215 SCT003 BKN006
PROB40
TEMPO 2209/2212 2000 -DZ BR BKN003
ATIS : +353 51 877 000



MET'MAP, la Météo Aéronautique d'un coup d'oeil ! - Copyright ORBIFLY Décembre 2007 - Disclaimer

ORBIFLY MET'MAP TEAM :

Programmation & Développement : Alexandra Zaïnal
Sur une idée originale de : Baudouin d'Aumeries
Assistance à la programmation : Marc-Olivier Méhu
Soutien technique & logistique : Manuel Goepfert

Contact : metmap@orbifly.com




SOURCES & CREDITS :

   NOAA